Time;durP1;ratioP1;P1;durP2;ratioP2;P2;SDS_P1;SDS_P2;PMS_P1;PMS_P2;Temp;Humidity;BMP_temperature;BMP_pressure;BME280_temperature;BME280_humidity;BME280_pressure;Samples;Min_cycle;Max_cycle;Signal;HPM_P1;HPM_P2
2021/01/17 11:27:38;;;;;;;29.27;11.40;;;;;;;-15.23;57.17;99767.84;1808010;77;28084;-72
2021/01/17 11:30:07;;;;;;;31.77;11.90;;;;;;;-15.18;56.96;99767.92;1796025;78;21235;-80
2021/01/17 11:32:35;;;;;;;33.53;13.27;;;;;;;-15.18;56.96;99767.08;1796706;78;21556;-76
2021/01/17 11:35:04;;;;;;;33.38;11.08;;;;;;;-15.12;57.01;99761.41;1798796;78;21523;-76
2021/01/17 11:37:36;;;;;;;33.40;11.47;;;;;;;-15.01;56.72;99757.16;1796582;78;21163;-73
2021/01/17 11:40:09;;;;;;;37.83;11.40;;;;;;;-14.91;56.17;99767.89;1792974;78;21566;-78
2021/01/17 11:42:37;;;;;;;36.43;13.37;;;;;;;-14.86;55.88;99770.20;1763591;79;21194;-81
2021/01/17 11:45:21;;;;;;;34.15;13.00;;;;;;;-14.72;56.53;99768.84;1783816;79;21124;-79
2021/01/17 11:48:00;;;;;;;37.60;12.30;;;;;;;-14.55;56.13;99769.86;1789025;79;21134;-77
2021/01/17 11:50:27;;;;;;;31.50;11.80;;;;;;;-14.59;55.24;99771.84;1778381;79;21152;-72
2021/01/17 11:52:58;;;;;;;30.60;12.33;;;;;;;-14.53;56.02;99770.59;1782575;79;21115;-72
2021/01/17 11:58:41;;;;;;;34.93;11.90;;;;;;;-14.47;55.26;99775.45;1800416;77;22119;-77
2021/01/17 12:01:11;;;;;;;32.17;12.17;;;;;;;-14.56;55.23;99772.11;1778680;80;21161;-73
2021/01/17 12:03:41;;;;;;;35.27;12.67;;;;;;;-14.53;55.79;99781.10;1764463;80;21173;-69
2021/01/17 12:06:18;;;;;;;33.57;12.33;;;;;;;-14.50;54.65;99779.59;1767793;80;21584;-74
2021/01/17 12:09:01;;;;;;;34.50;13.17;;;;;;;-14.52;55.28;99780.17;1764560;80;21136;-74
2021/01/17 12:11:45;;;;;;;35.60;13.60;;;;;;;-14.62;54.75;99771.22;1759447;80;21560;-73
2021/01/17 12:14:30;;;;;;;34.70;13.00;;;;;;;-14.73;55.27;99767.14;1762005;80;21158;-74
2021/01/17 12:16:59;;;;;;;31.45;12.10;;;;;;;-14.79;55.60;99780.67;1762769;80;21105;-74
2021/01/17 12:19:27;;;;;;;34.95;10.85;;;;;;;-14.90;55.30;99793.68;1766187;80;21283;-73
2021/01/17 12:21:56;;;;;;;36.70;14.17;;;;;;;-14.90;55.82;99785.80;1767283;80;21513;-72
2021/01/17 12:24:24;;;;;;;35.80;13.07;;;;;;;-14.83;55.79;99780.05;1759675;80;21144;-77
2021/01/17 12:26:53;;;;;;;33.90;12.13;;;;;;;-14.86;55.72;99774.14;1762472;80;21180;-76
2021/01/17 12:29:21;;;;;;;38.33;13.63;;;;;;;-14.92;55.93;99777.20;1770674;80;21440;-76
2021/01/17 12:31:50;;;;;;;35.47;12.80;;;;;;;-14.95;55.74;99771.17;1695609;83;21177;-76
2021/01/17 12:34:18;;;;;;;32.57;12.83;;;;;;;-14.92;56.36;99767.05;1711620;83;21136;-75
2021/01/17 12:36:47;;;;;;;36.73;12.57;;;;;;;-14.85;56.36;99759.63;1719868;82;21557;-74
2021/01/17 12:39:17;;;;;;;36.27;14.10;;;;;;;-14.81;56.21;99758.93;1730973;81;21129;-72
2021/01/17 12:41:48;;;;;;;39.60;13.30;;;;;;;-14.73;57.04;99760.11;1734121;82;21133;-75
2021/01/17 12:44:16;;;;;;;40.57;14.00;;;;;;;-14.57;56.87;99766.50;1731489;81;21808;-75
2021/01/17 12:46:44;;;;;;;;;;;;;;;-14.46;56.77;99770.55;1730834;82;21148;-74
2021/01/17 12:49:13;;;;;;;33.83;12.53;;;;;;;-14.45;56.25;99781.44;1731465;81;20221;-74
2021/01/17 12:51:41;;;;;;;39.27;13.23;;;;;;;-14.48;56.26;99781.17;1727745;82;21141;-77
2021/01/17 12:54:10;;;;;;;31.47;11.67;;;;;;;-14.38;56.55;99786.64;1726471;81;21256;-74
2021/01/17 12:56:39;;;;;;;30.75;11.90;;;;;;;-14.28;55.15;99785.03;1730401;82;21627;-76
2021/01/17 12:59:07;;;;;;;32.87;12.83;;;;;;;-14.31;54.70;99778.70;1727250;81;21647;-71
2021/01/17 13:01:36;;;;;;;32.87;12.97;;;;;;;-14.46;55.34;99779.73;1728694;82;21674;-76
2021/01/17 13:04:05;;;;;;;34.33;12.33;;;;;;;-14.51;54.70;99779.20;1729205;81;21569;-80
2021/01/17 13:06:32;;;;;;;;;;;;;;;-14.63;54.65;99787.91;1735095;82;21098;-75
2021/01/17 13:09:00;;;;;;;36.33;12.50;;;;;;;-14.74;55.36;99787.77;1721098;81;20473;-80
2021/01/17 13:11:29;;;;;;;38.53;13.47;;;;;;;-14.71;55.03;99792.36;1695110;82;21153;-78
2021/01/17 13:13:56;;;;;;;40.17;14.63;;;;;;;-14.66;55.14;99793.36;1673570;83;21583;-79
2021/01/17 13:16:25;;;;;;;36.00;12.90;;;;;;;-14.77;55.22;99805.88;1700371;83;21125;-76
2021/01/17 13:18:53;;;;;;;36.93;14.50;;;;;;;-14.85;54.76;99803.41;1695370;83;21167;-79
2021/01/17 13:21:21;;;;;;;43.08;14.60;;;;;;;-14.94;55.14;99805.69;1699398;83;21268;-75
2021/01/17 13:23:50;;;;;;;37.53;14.20;;;;;;;-15.03;55.89;99801.05;1705483;83;21111;-76
2021/01/17 13:26:19;;;;;;;36.23;13.80;;;;;;;-15.06;56.14;99799.93;1703337;83;21561;-80
2021/01/17 13:28:47;;;;;;;38.17;13.10;;;;;;;-15.04;55.90;99805.91;1704089;83;21628;-80
2021/01/17 13:31:15;;;;;;;35.33;13.45;;;;;;;-15.04;55.54;99800.66;1698560;83;21114;-77
2021/01/17 13:33:43;;;;;;;40.23;14.50;;;;;;;-15.06;56.29;99802.55;1700439;83;21607;-80
2021/01/17 13:36:11;;;;;;;35.30;13.10;;;;;;;-15.01;56.46;99799.16;1707399;83;21565;-81
2021/01/17 13:38:39;;;;;;;38.67;13.90;;;;;;;-14.95;56.16;99801.36;1711682;83;21168;-74
2021/01/17 13:41:11;;;;;;;34.97;12.90;;;;;;;-15.11;56.10;99799.39;1710115;83;21184;-78
2021/01/17 13:43:41;;;;;;;43.30;14.33;;;;;;;-15.21;56.87;99786.48;1719609;83;21153;-80
2021/01/17 13:46:14;;;;;;;36.90;14.07;;;;;;;-15.07;56.63;99791.67;1718499;83;21125;-76
2021/01/17 13:48:42;;;;;;;43.37;14.90;;;;;;;-14.97;56.71;99790.59;1690817;85;21161;-73
2021/01/17 13:51:10;;;;;;;39.20;14.63;;;;;;;-14.89;56.66;99790.94;1712511;83;21660;-78
2021/01/17 13:53:39;;;;;;;40.20;14.60;;;;;;;-14.83;56.54;99777.89;1718172;83;21200;-82
2021/01/17 13:56:07;;;;;;;41.07;14.43;;;;;;;-14.76;56.83;99779.16;1717785;83;21196;-82
2021/01/17 13:58:35;;;;;;;43.95;16.73;;;;;;;-14.68;56.77;99775.09;1690487;83;21623;-74
2021/01/17 14:01:03;;;;;;;46.70;15.10;;;;;;;-14.65;56.51;99768.80;1690930;83;21139;-75
2021/01/17 14:03:32;;;;;;;47.73;15.50;;;;;;;-14.62;56.57;99764.16;1714741;83;21162;-78
2021/01/17 14:06:00;;;;;;;44.55;14.70;;;;;;;-14.60;56.24;99775.43;1718507;83;21681;-75
2021/01/17 14:08:28;;;;;;;41.77;15.98;;;;;;;-14.61;56.13;99772.89;1702224;82;21190;-78
2021/01/17 14:10:56;;;;;;;49.77;17.23;;;;;;;-14.69;56.42;99775.17;1686997;83;21170;-76
2021/01/17 14:13:25;;;;;;;56.40;18.60;;;;;;;-14.70;56.44;99764.32;1725323;81;21174;-77
2021/01/17 14:15:52;;;;;;;73.50;21.55;;;;;;;-14.71;56.67;99765.25;1716025;82;21141;-78
2021/01/17 14:18:21;;;;;;;85.70;26.47;;;;;;;-14.72;56.92;99759.65;1704524;83;21125;-75
2021/01/17 14:20:48;;;;;;;;;;;;;;;-14.66;56.91;99759.22;1698124;83;21149;-77
2021/01/17 14:23:16;;;;;;;40.00;14.90;;;;;;;-14.68;56.67;99770.30;1690649;83;20460;-77
2021/01/17 14:25:44;;;;;;;42.38;16.02;;;;;;;-14.78;56.71;99762.67;1700776;83;21148;-77
2021/01/17 14:28:12;;;;;;;39.78;15.58;;;;;;;-14.88;56.98;99752.41;1710290;83;21221;-71
2021/01/17 14:30:40;;;;;;;41.30;14.93;;;;;;;-14.92;57.30;99755.70;1692012;83;21134;-77
2021/01/17 14:33:08;;;;;;;46.25;16.45;;;;;;;-14.92;57.29;99757.50;1696269;83;21209;-76
2021/01/17 14:35:36;;;;;;;46.10;14.50;;;;;;;-14.91;57.31;99757.39;1701144;83;21175;-76
2021/01/17 14:38:05;;;;;;;38.83;14.50;;;;;;;-14.92;56.97;99767.05;1725942;83;21164;-76
2021/01/17 14:40:32;;;;;;;38.02;15.30;;;;;;;-15.00;57.09;99764.57;1728221;81;21141;-77
2021/01/17 14:43:02;;;;;;;;;;;;;;;-15.05;57.38;99774.03;1732606;83;21408;-79
2021/01/17 14:45:30;;;;;;;42.87;14.30;;;;;;;-15.05;57.39;99774.03;1722341;83;20180;-76
2021/01/17 14:47:58;;;;;;;41.07;13.60;;;;;;;-15.14;57.26;99765.46;1721681;83;21270;-73
2021/01/17 14:50:27;;;;;;;44.23;15.17;;;;;;;-15.19;57.29;99762.75;1717861;83;21670;-70
2021/01/17 14:52:55;;;;;;;40.78;15.85;;;;;;;-15.21;57.43;99765.95;1723049;83;21177;-71
2021/01/17 14:55:25;;;;;;;39.90;15.55;;;;;;;-15.25;57.80;99756.11;1711582;83;21172;-72
2021/01/17 14:57:57;;;;;;;35.23;13.80;;;;;;;-15.27;57.99;99755.38;1721311;83;21580;-76
2021/01/17 15:00:25;;;;;;;40.67;14.93;;;;;;;-15.28;58.17;99761.59;1717170;83;21139;-71
2021/01/17 15:02:55;;;;;;;38.37;15.80;;;;;;;-15.22;57.94;99750.67;1701643;83;21142;-69
2021/01/17 15:05:23;;;;;;;35.40;13.50;;;;;;;-15.19;58.11;99751.80;1713136;81;21157;-80
2021/01/17 15:07:56;;;;;;;34.45;13.18;;;;;;;-15.14;58.17;99744.92;1728703;82;21210;-79
2021/01/17 15:10:24;;;;;;;32.27;12.47;;;;;;;-15.09;58.17;99759.44;1710647;83;21185;-78
2021/01/17 15:12:52;;;;;;;31.83;12.37;;;;;;;-15.09;58.11;99773.03;1732228;83;21172;-78
2021/01/17 15:15:21;;;;;;;35.23;12.93;;;;;;;-15.10;57.76;99771.36;1702337;83;21178;-78
2021/01/17 15:17:49;;;;;;;37.53;13.40;;;;;;;-15.08;57.48;99778.66;1714371;83;21162;-79
2021/01/17 15:20:18;;;;;;;43.33;13.30;;;;;;;-15.10;57.48;99771.36;1698092;83;21198;-79
2021/01/17 15:22:46;;;;;;;28.77;12.27;;;;;;;-15.14;57.30;99766.77;1707824;82;21101;-79
2021/01/17 15:25:14;;;;;;;33.18;11.95;;;;;;;-15.21;57.47;99762.87;1714079;83;21264;-79
2021/01/17 15:27:43;;;;;;;28.73;11.63;;;;;;;-15.21;57.74;99769.42;1708035;83;21173;-73
2021/01/17 15:30:12;;;;;;;;;;;;;;;-15.19;57.81;99756.20;1710620;83;21485;-75
2021/01/17 15:32:40;;;;;;;34.73;13.30;;;;;;;-15.27;57.32;99753.22;1679021;83;20238;-78
2021/01/17 15:35:11;;;;;;;43.07;14.30;;;;;;;-15.34;57.81;99760.66;1701700;83;21172;-77
2021/01/17 15:37:41;;;;;;;46.10;16.10;;;;;;;-15.39;57.98;99754.86;1702608;83;21710;-78
2021/01/17 15:40:10;;;;;;;37.37;15.67;;;;;;;-15.47;58.24;99751.06;1699743;83;21137;-75
2021/01/17 15:42:38;;;;;;;39.00;14.27;;;;;;;-15.58;58.70;99753.55;1698387;83;21132;-75
2021/01/17 15:45:07;;;;;;;;;;;;;;;-15.69;59.07;99753.76;1713582;83;21133;-76
2021/01/17 15:47:35;;;;;;;48.33;15.50;;;;;;;-15.69;59.03;99758.16;1700150;83;20156;-77
2021/01/17 15:50:05;;;;;;;45.30;14.43;;;;;;;-15.75;59.10;99761.15;1704220;83;21181;-78
2021/01/17 15:52:33;;;;;;;38.67;13.23;;;;;;;-15.80;59.42;99765.84;1702610;83;21184;-79
2021/01/17 15:55:01;;;;;;;42.00;14.70;;;;;;;-15.73;59.55;99764.52;1705737;83;21169;-77
2021/01/17 15:57:29;;;;;;;37.53;13.97;;;;;;;-15.70;59.38;99757.31;1706491;83;21132;-75
2021/01/17 16:11:54;;;;;;;44.25;20.12;;;;;;;-15.38;58.90;99766.20;1800239;77;28433;-74
2021/01/17 16:14:22;;;;;;;38.13;14.67;;;;;;;-15.35;58.68;99771.27;1789237;80;21116;-75
2021/01/17 16:16:50;;;;;;;39.88;15.63;;;;;;;-15.34;58.81;99772.46;1747295;81;21111;-77
2021/01/17 16:19:18;;;;;;;38.42;14.00;;;;;;;-15.36;58.93;99774.34;1751758;81;21345;-76
2021/01/17 16:21:46;;;;;;;;;;;;;;;-15.38;59.08;99784.11;1760792;81;21140;-73
2021/01/17 16:24:14;;;;;;;34.03;13.22;;;;;;;-15.39;59.13;99787.66;1760019;81;20382;-77
2021/01/17 16:26:45;;;;;;;39.40;14.87;;;;;;;-15.43;59.02;99788.80;1760085;81;21123;-75
2021/01/17 16:29:13;;;;;;;41.20;15.33;;;;;;;-15.47;59.03;99792.57;1751397;81;21096;-76
2021/01/17 16:31:52;;;;;;;37.83;14.13;;;;;;;-15.51;59.18;99796.34;1689525;82;21155;-76
2021/01/17 16:34:21;;;;;;;36.43;13.60;;;;;;;-15.60;59.24;99795.13;1689304;83;21150;-75
2021/01/17 16:36:50;;;;;;;43.10;14.03;;;;;;;-15.65;59.62;99793.72;1706067;84;21288;-76
2021/01/17 16:39:18;;;;;;;37.60;13.60;;;;;;;-15.75;59.52;99797.86;1703227;83;21141;-79
2021/01/17 16:41:48;;;;;;;42.20;15.03;;;;;;;-15.82;59.49;99796.55;1707486;83;21779;-73
2021/01/17 16:44:16;;;;;;;36.10;13.90;;;;;;;-15.88;59.75;99799.55;1672580;85;21225;-80
2021/01/17 16:46:44;;;;;;;46.35;14.85;;;;;;;-15.97;59.95;99800.12;1700724;84;21198;-80
2021/01/17 16:49:12;;;;;;;40.97;16.13;;;;;;;-16.03;60.00;99797.86;1694609;84;21118;-80
2021/01/17 16:51:40;;;;;;;;;;;;;;;-16.09;60.47;99803.03;1720838;82;21551;-78
2021/01/17 16:54:09;;;;;;;43.67;15.97;;;;;;;-16.09;60.66;99799.10;1701897;82;20682;-78
2021/01/17 16:56:37;;;;;;;41.90;13.77;;;;;;;-16.08;60.64;99803.39;1713020;82;21620;-78
2021/01/17 16:59:05;;;;;;;43.10;16.10;;;;;;;-16.12;60.76;99806.30;1711722;82;21137;-73
2021/01/17 17:01:40;;;;;;;39.70;14.30;;;;;;;-16.12;60.78;99799.74;1698504;83;21178;-74
2021/01/17 17:04:10;;;;;;;41.23;14.80;;;;;;;-16.12;60.90;99793.19;1723931;82;21263;-80
2021/01/17 17:06:39;;;;;;;42.20;13.90;;;;;;;-16.14;60.92;99798.54;1712454;83;21101;-74
2021/01/17 17:09:08;;;;;;;39.07;14.60;;;;;;;-16.15;60.89;99798.61;1696627;84;21173;-73
2021/01/17 17:11:36;;;;;;;40.90;15.90;;;;;;;-16.14;61.04;99808.17;1705605;83;21555;-75
2021/01/17 17:14:04;;;;;;;41.07;15.00;;;;;;;-16.15;60.88;99806.47;1695674;83;21374;-76
2021/01/17 17:16:33;;;;;;;43.20;16.70;;;;;;;-16.22;60.94;99821.73;1702268;83;21669;-80
2021/01/17 17:19:02;;;;;;;43.27;16.30;;;;;;;-16.27;61.09;99822.47;1699369;84;21216;-76
2021/01/17 17:21:35;;;;;;;37.23;13.88;;;;;;;-16.36;61.42;99823.84;1696080;84;21133;-80
2021/01/17 17:24:06;;;;;;;43.23;16.30;;;;;;;-16.37;61.55;99834.43;1707639;84;21140;-80
2021/01/17 17:26:38;;;;;;;42.30;14.70;;;;;;;-16.39;61.35;99844.98;1695235;83;21119;-74
2021/01/17 17:29:09;;;;;;;46.40;15.83;;;;;;;-16.41;61.59;99845.54;1695313;84;21145;-73
2021/01/17 17:31:46;;;;;;;42.63;15.80;;;;;;;-16.46;61.71;99855.44;1698104;84;21184;-79
2021/01/17 17:34:17;;;;;;;44.58;15.95;;;;;;;-16.45;62.24;99851.91;1721108;83;21110;-81
2021/01/17 17:36:45;;;;;;;44.17;15.30;;;;;;;-16.36;62.23;99852.66;1714515;83;21113;-76
2021/01/17 17:39:17;;;;;;;;;;;;;;;-16.29;61.81;99843.50;1700171;83;21152;-79
2021/01/17 17:41:43;;;;;;;45.43;16.33;;;;;;;-16.28;61.94;99850.44;1703055;83;20527;-80
2021/01/17 17:44:11;;;;;;;;;;;;;;;-16.24;62.25;99845.88;1700098;83;21124;-78
2021/01/17 17:46:42;;;;;;;43.27;15.07;;;;;;;-16.17;62.26;99846.34;1717347;82;20163;-77
2021/01/17 17:49:11;;;;;;;49.07;16.57;;;;;;;-16.12;62.01;99852.14;1726390;82;21179;-76
2021/01/17 17:51:38;;;;;;;;;;;;;;;-16.11;62.26;99856.47;1683920;83;21194;-78
2021/01/17 17:54:06;;;;;;;39.05;14.55;;;;;;;-16.02;62.36;99862.45;1722528;82;20206;-79
2021/01/17 17:56:35;;;;;;;47.73;15.33;;;;;;;-15.93;62.29;99868.44;1702116;82;21452;-76
2021/01/17 17:59:02;;;;;;;45.65;16.80;;;;;;;-15.92;62.15;99867.05;1721824;82;21145;-76
2021/01/17 18:01:42;;;;;;;45.28;16.17;;;;;;;-15.88;62.04;99875.09;1717695;82;21168;-81
2021/01/17 18:04:13;;;;;;;40.23;14.70;;;;;;;-15.81;61.75;99886.08;1661320;84;21148;-78
2021/01/17 18:06:41;;;;;;;49.00;16.93;;;;;;;-15.89;61.45;99883.91;1691956;83;21268;-76
2021/01/17 18:09:10;;;;;;;48.70;16.90;;;;;;;-15.96;62.04;99890.93;1717068;83;21144;-78
2021/01/17 18:11:44;;;;;;;45.63;16.27;;;;;;;-15.95;62.03;99888.20;1725117;82;21603;-80
2021/01/17 18:14:12;;;;;;;49.73;16.93;;;;;;;-15.91;62.25;99881.02;1718558;82;21140;-80
2021/01/17 18:19:20;;;;;;;44.40;16.43;;;;;;;-15.79;62.53;99875.88;1813482;77;22092;-77
2021/01/17 18:21:50;;;;;;;48.00;16.13;;;;;;;-15.76;62.35;99865.66;1751424;80;21206;-76
2021/01/17 18:24:18;;;;;;;47.37;16.37;;;;;;;-15.71;61.82;99871.47;1744771;80;21164;-78
2021/01/17 18:26:46;;;;;;;45.83;17.03;;;;;;;-15.67;61.86;99884.76;1690733;83;21225;-78
2021/01/17 18:29:18;;;;;;;49.63;16.87;;;;;;;-15.70;62.19;99881.00;1694754;83;21150;-79
2021/01/17 18:31:46;;;;;;;;;;;;;;;-15.67;62.02;99869.02;1704716;84;21196;-82
2021/01/17 18:34:14;;;;;;;41.23;15.40;;;;;;;-15.63;62.26;99873.98;1697932;82;20162;-77
2021/01/17 18:36:43;;;;;;;46.00;16.50;;;;;;;-15.55;61.62;99877.91;1698162;82;21137;-82
2021/01/17 18:39:11;;;;;;;40.40;16.40;;;;;;;-15.53;61.40;99876.06;1689139;84;21224;-78
2021/01/17 18:41:39;;;;;;;50.63;17.20;;;;;;;-15.53;61.60;99879.50;1694791;82;21113;-77
2021/01/17 18:44:07;;;;;;;46.50;17.30;;;;;;;-15.48;61.17;99873.99;1707305;84;21238;-83
2021/01/17 18:46:35;;;;;;;49.53;16.43;;;;;;;-15.44;61.27;99872.36;1699359;82;21257;-79
2021/01/17 18:49:03;;;;;;;;;;;;;;;-15.43;60.83;99857.47;1704525;84;21180;-80
2021/01/17 18:51:32;;;;;;;51.17;17.23;;;;;;;-15.38;60.70;99860.19;1660128;84;20212;-80
2021/01/17 18:54:00;;;;;;;47.50;17.03;;;;;;;-15.36;60.74;99858.77;1695825;84;21580;-81
2021/01/17 18:56:28;;;;;;;44.35;16.70;;;;;;;-15.36;60.70;99853.05;1695048;82;21712;-82
2021/01/17 18:58:56;;;;;;;48.73;16.87;;;;;;;-15.37;60.93;99854.44;1700428;84;21139;-81
2021/01/17 19:01:24;;;;;;;51.83;18.87;;;;;;;-15.39;60.61;99851.92;1670746;83;21173;-82
2021/01/17 19:03:52;;;;;;;56.80;19.55;;;;;;;-15.40;60.79;99854.16;1697397;84;21160;-75
2021/01/17 19:06:22;;;;;;;48.93;18.37;;;;;;;-15.39;60.70;99861.11;1693582;82;21387;-75
2021/01/17 19:08:50;;;;;;;54.10;19.45;;;;;;;-15.44;60.85;99859.70;1702383;84;21173;-82
2021/01/17 19:11:22;;;;;;;;;;;;;;;-15.48;60.80;99855.17;1698378;82;21243;-80
2021/01/17 19:13:51;;;;;;;53.17;18.37;;;;;;;-15.44;60.99;99850.06;1702649;84;20157;-82
2021/01/17 19:16:18;;;;;;;48.85;17.30;;;;;;;-15.37;61.12;99838.23;1693629;82;21192;-79
2021/01/17 19:18:48;;;;;;;52.13;18.30;;;;;;;-15.35;60.92;99825.05;1693043;84;21152;-74
2021/01/17 19:21:16;;;;;;;58.50;18.83;;;;;;;-15.41;60.84;99820.17;1692867;84;21615;-73
2021/01/17 19:23:45;;;;;;;59.90;19.30;;;;;;;-15.38;61.15;99825.23;1702353;82;21157;-76
2021/01/17 19:26:13;;;;;;;52.90;18.20;;;;;;;-15.34;61.20;99831.49;1699350;83;21128;-75
2021/01/17 19:28:41;;;;;;;62.75;19.30;;;;;;;-15.34;60.94;99828.02;1695571;83;21141;-77
2021/01/17 19:31:10;;;;;;;58.37;18.87;;;;;;;-15.35;61.13;99825.05;1708617;83;21160;-77
2021/01/17 19:33:37;;;;;;;;;;;;;;;-15.36;61.08;99824.20;1702244;83;21119;-76
2021/01/17 19:36:06;;;;;;;52.65;18.65;;;;;;;-15.37;61.18;99825.13;1687266;84;20178;-73
2021/01/17 19:38:34;;;;;;;63.27;20.37;;;;;;;-15.38;61.40;99822.14;1692186;83;21140;-75
2021/01/17 19:41:03;;;;;;;49.77;18.90;;;;;;;-15.35;61.21;99821.11;1689655;84;21228;-75
2021/01/17 19:43:31;;;;;;;56.17;19.10;;;;;;;-15.39;61.31;99817.82;1697257;83;21141;-79
2021/01/17 19:45:59;;;;;;;60.58;20.27;;;;;;;-15.42;61.43;99807.98;1701018;83;21132;-78
2021/01/17 19:48:27;;;;;;;53.98;18.07;;;;;;;-15.38;61.91;99811.65;1649187;83;21605;-82
2021/01/17 19:50:55;;;;;;;54.93;18.17;;;;;;;-15.35;61.43;99805.37;1705674;83;21105;-77
2021/01/17 19:53:23;;;;;;;45.45;17.48;;;;;;;-15.37;61.19;99800.66;1701044;82;21218;-76
2021/01/17 19:55:57;;;;;;;53.50;18.93;;;;;;;-15.36;61.27;99804.52;1685468;84;21592;-80
2021/01/17 19:58:25;;;;;;;51.50;17.23;;;;;;;-15.34;61.86;99807.03;1706493;83;21198;-79
2021/01/17 20:00:53;;;;;;;53.33;18.17;;;;;;;-15.33;61.84;99806.95;1706081;82;21145;-79
2021/01/17 20:03:21;;;;;;;51.92;18.00;;;;;;;-15.36;61.17;99813.70;1699649;82;21144;-78
2021/01/17 20:05:49;;;;;;;51.53;17.30;;;;;;;-15.39;61.88;99813.04;1712143;82;21141;-76
2021/01/17 20:08:18;;;;;;;47.87;18.03;;;;;;;-15.44;61.80;99817.27;1697807;82;21147;-76
2021/01/17 20:10:46;;;;;;;47.50;17.15;;;;;;;-15.46;62.11;99834.92;1700998;82;21678;-76
2021/01/17 20:13:14;;;;;;;56.63;19.70;;;;;;;-15.44;62.08;99824.30;1675638;84;21216;-79
2021/01/17 20:15:42;;;;;;;44.10;17.60;;;;;;;-15.36;62.00;99837.77;1698485;82;21733;-85
2021/01/17 20:18:11;;;;;;;55.57;19.13;;;;;;;-15.29;61.69;99842.54;1694485;83;21208;-82
2021/01/17 20:20:39;;;;;;;47.07;18.63;;;;;;;-15.25;61.87;99845.33;1699897;82;21584;-78
2021/01/17 20:23:08;;;;;;;49.10;17.87;;;;;;;-15.21;61.87;99831.09;1700602;82;21141;-78
2021/01/17 20:25:41;;;;;;;51.30;18.10;;;;;;;-15.20;62.01;99815.70;1703691;82;21675;-78
2021/01/17 20:28:09;;;;;;;50.97;18.20;;;;;;;-15.18;62.05;99813.84;1700881;83;21163;-82
2021/01/17 20:30:37;;;;;;;51.10;17.73;;;;;;;-15.19;62.06;99823.95;1683307;82;21678;-78
2021/01/17 20:33:05;;;;;;;56.23;18.92;;;;;;;-15.21;62.46;99822.38;1712960;83;21113;-79
2021/01/17 20:35:33;;;;;;;49.58;17.02;;;;;;;-15.18;62.18;99815.63;1696478;83;21157;-79
2021/01/17 20:38:03;;;;;;;52.03;17.60;;;;;;;-15.17;61.97;99811.58;1691692;83;21603;-82
2021/01/17 20:40:32;;;;;;;47.43;17.67;;;;;;;-15.15;62.13;99809.69;1703465;82;21702;-82
2021/01/17 20:43:00;;;;;;;54.13;19.27;;;;;;;-15.13;61.91;99807.83;1702455;83;21156;-74
2021/01/17 20:45:30;;;;;;;45.03;18.12;;;;;;;-15.10;61.92;99812.86;1698779;83;21157;-75
2021/01/17 20:47:58;;;;;;;46.23;17.93;;;;;;;-15.15;61.94;99811.00;1708069;82;21164;-75
2021/01/17 20:50:26;;;;;;;48.50;17.92;;;;;;;-15.19;62.33;99809.52;1701198;82;21208;-73
2021/01/17 20:52:55;;;;;;;51.47;19.90;;;;;;;-15.19;62.10;99812.61;1676385;84;21215;-74
2021/01/17 20:55:24;;;;;;;55.77;18.23;;;;;;;-15.15;62.28;99813.62;1700895;83;21789;-74
2021/01/17 20:57:51;;;;;;;;;;;;;;;-15.07;62.09;99821.01;1697248;83;21134;-74
2021/01/17 21:00:20;;;;;;;52.20;16.80;;;;;;;-15.04;61.91;99829.53;1699421;84;20198;-73
2021/01/17 21:02:48;;;;;;;48.27;18.63;;;;;;;-15.07;62.01;99829.73;1695841;83;21168;-72
2021/01/17 21:05:17;;;;;;;55.57;19.20;;;;;;;-15.05;61.85;99824.41;1701940;83;21579;-71
2021/01/17 21:07:45;;;;;;;;;;;;;;;-15.00;61.96;99825.77;1698513;83;21537;-75
2021/01/17 21:10:13;;;;;;;51.03;16.93;;;;;;;-14.95;62.01;99835.99;1704017;83;20180;-73
2021/01/17 21:12:42;;;;;;;52.80;18.67;;;;;;;-14.95;61.73;99823.68;1698639;83;21177;-73
2021/01/17 21:15:12;;;;;;;53.47;18.07;;;;;;;-14.95;61.93;99821.55;1698087;83;21167;-71
2021/01/17 21:17:40;;;;;;;49.10;17.30;;;;;;;-14.95;61.76;99824.18;1701432;84;21149;-74
2021/01/17 21:20:12;;;;;;;51.23;17.77;;;;;;;-15.02;62.07;99826.34;1697475;83;21605;-73
2021/01/17 21:22:40;;;;;;;51.30;18.23;;;;;;;-14.99;62.21;99816.95;1689597;84;21149;-78
2021/01/17 21:25:09;;;;;;;49.97;18.83;;;;;;;-15.08;61.96;99821.97;1700630;83;21200;-81
2021/01/17 21:27:40;;;;;;;48.13;18.20;;;;;;;-15.16;62.43;99821.14;1674746;84;21212;-81
2021/01/17 21:30:10;;;;;;;57.73;19.00;;;;;;;-15.18;62.44;99815.63;1703437;83;21141;-81
2021/01/17 21:32:38;;;;;;;49.73;18.43;;;;;;;-15.17;62.30;99818.14;1701482;83;21667;-82
2021/01/17 21:39:00;;;;;;;52.55;22.25;;;;;;;-14.96;62.33;99814.61;1804046;77;28017;-76
2021/01/17 21:41:33;;;;;;;49.17;18.77;;;;;;;-14.84;61.78;99812.48;1752481;80;21097;-81
2021/01/17 21:44:01;;;;;;;50.13;18.30;;;;;;;-14.82;61.74;99811.09;1754634;81;21584;-78
2021/01/17 21:46:29;;;;;;;44.63;17.57;;;;;;;-14.86;61.81;99821.41;1754931;81;21240;-72
2021/01/17 21:48:57;;;;;;;49.03;18.12;;;;;;;-14.90;61.82;99819.47;1758230;81;21239;-76
2021/01/17 21:51:24;;;;;;;46.30;18.07;;;;;;;-14.95;61.91;99817.12;1755353;81;21592;-73
2021/01/17 22:06:42;;;;;;;57.17;22.73;;;;;;;-14.30;61.45;99820.63;1781084;79;28242;-77
2021/01/17 22:09:12;;;;;;;47.17;18.60;;;;;;;-14.27;61.08;99827.47;1769004;80;21160;-78
2021/01/17 22:11:40;;;;;;;43.63;17.77;;;;;;;-14.20;60.94;99826.10;1747552;81;21116;-75
2021/01/17 22:14:08;;;;;;;50.00;18.97;;;;;;;-14.19;60.94;99833.05;1751408;80;21143;-75
2021/01/17 22:16:36;;;;;;;49.77;18.05;;;;;;;-14.29;60.29;99834.13;1757084;80;21108;-79
2021/01/17 22:19:04;;;;;;;51.50;19.57;;;;;;;-14.35;60.72;99831.11;1767516;81;21100;-73
2021/01/17 22:21:34;;;;;;;55.10;19.80;;;;;;;-14.35;60.82;99825.85;1764903;80;21141;-73
2021/01/17 22:24:03;;;;;;;53.57;19.43;;;;;;;-14.38;60.85;99825.59;1757645;81;21146;-75
2021/01/17 22:26:30;;;;;;;53.20;19.93;;;;;;;-14.43;61.29;99815.01;1755608;81;21398;-76
2021/01/17 22:28:58;;;;;;;44.90;17.92;;;;;;;-14.44;61.62;99819.88;1740340;81;21135;-72
2021/01/17 22:31:27;;;;;;;58.40;19.82;;;;;;;-14.50;61.09;99812.42;1750033;80;21635;-78
2021/01/17 22:33:55;;;;;;;63.73;21.40;;;;;;;-14.46;61.36;99812.58;1751674;80;21164;-73
2021/01/17 22:36:23;;;;;;;58.20;20.48;;;;;;;-14.46;60.76;99806.86;1743887;80;21562;-74
2021/01/17 22:38:51;;;;;;;55.07;19.67;;;;;;;-14.53;61.07;99807.38;1750823;80;21212;-71
2021/01/17 22:41:19;;;;;;;48.83;19.20;;;;;;;-14.57;61.17;99812.47;1752208;80;21168;-72
2021/01/17 22:43:47;;;;;;;;;;;;;;;-14.57;61.27;99813.28;1755338;80;21146;-71
2021/01/17 22:46:15;;;;;;;48.28;17.70;;;;;;;-14.48;61.09;99813.16;1753393;80;20264;-74
2021/01/17 22:48:43;;;;;;;50.50;18.15;;;;;;;-14.45;61.12;99805.08;1759337;80;21189;-75
2021/01/17 22:51:15;;;;;;;47.10;18.12;;;;;;;-14.38;60.89;99808.97;1747042;81;21148;-73
2021/01/17 22:53:43;;;;;;;52.37;19.33;;;;;;;-14.34;60.65;99808.66;1761179;80;21281;-75
2021/01/17 22:56:23;;;;;;;55.33;19.62;;;;;;;-14.36;60.64;99814.95;1736333;81;21155;-73
2021/01/17 22:58:52;;;;;;;55.03;18.63;;;;;;;-14.36;60.79;99817.59;1730786;82;21254;-75
2021/01/17 23:01:21;;;;;;;53.00;19.00;;;;;;;-14.39;60.75;99815.16;1729608;80;21535;-74
2021/01/17 23:03:50;;;;;;;50.43;19.33;;;;;;;-14.39;60.52;99817.32;1743224;82;21109;-79
2021/01/17 23:06:20;;;;;;;50.93;18.43;;;;;;;-14.46;60.51;99816.52;1753580;80;21132;-79
2021/01/17 23:08:49;;;;;;;49.77;17.60;;;;;;;-14.51;60.76;99811.58;1755612;80;21258;-80
2021/01/17 23:11:17;;;;;;;48.33;18.93;;;;;;;-14.48;60.79;99800.02;1739536;80;21132;-80
2021/01/17 23:13:46;;;;;;;52.30;18.77;;;;;;;-14.48;60.73;99792.14;1741668;82;21073;-78
2021/01/17 23:16:14;;;;;;;48.77;18.17;;;;;;;-14.51;60.70;99797.59;1741946;80;21160;-78
2021/01/17 23:18:42;;;;;;;50.17;18.60;;;;;;;-14.55;60.79;99796.98;1755724;80;21227;-78
2021/01/17 23:21:14;;;;;;;51.58;19.02;;;;;;;-14.54;61.07;99787.28;1745291;80;21118;-78
2021/01/17 23:23:42;;;;;;;48.17;19.20;;;;;;;-14.54;60.79;99787.28;1731193;80;21176;-78